Albuquerque, NM (87108)

7:53 AM MDT on May 28, 2017 (GMT -0600)
Nob Hill | | Change Station

Elev 5243 ft 35.07 °N, 106.60 °W | Updated 23 seconds ago

Partly Cloudy
Partly Cloudy
63.3 °F
Feels Like 63.3 °F
N
5.1
Wind Variable Wind from East
Gusts 7.4 mph

Today
High -- | Low -- °F
--% Chance of Precip.
Yesterday
High -- | Low -- °F
Precip. -- in
Pressure 30.02 in
Visibility 10.0 miles
Clouds Few 4500 ft
Few 13000 ft
Dew Point 37 °F
Humidity 38%
Rainfall 0.00 in
Snow Depth Not available.
5:54 AM 8:12 PM
Waxing Crescent, 11% visible
METAR KABQ 281252Z 08018KT 10SM FEW045 FEW130 14/05 A3023 RMK AO2 PK WND 08027/1223 SLP164 T01440050
Pressure 30.02 in
Visibility 10.0 miles
Clouds Few 4500 ft
Few 13000 ft
Dew Point 37 °F
Humidity 38%
Rainfall 0.00 in
Snow Depth Not available.
5:54 AM 8:12 PM
Waxing Crescent, 11% visible
METAR KABQ 281252Z 08018KT 10SM FEW045 FEW130 14/05 A3023 RMK AO2 PK WND 08027/1223 SLP164 T01440050

Get Severe Weather Alerts

Thanks for signing up!

Be on the lookout for a verification email in your inbox.

You'll start receiving the daily forecast at 6 AM.

×

10-Day Weather Forecast

Almanac

Astronomy

May. 28, 2017 Rise Set
Actual Time
Civil Twilight
Nautical Twilight
Astronomical Twilight
Moon
Length of Visible Light
Length of Day
Tomorrow will be .
, % of the Moon is Illuminated

Today's Extremes

State Highs State Lows

Community

WunderPhotos

Category 6

Welcome to Category 6. This is the collective home for Weather Underground's featured writeups by Dr. Jeff Masters (right), Bob Henson (left), Chris Burt, and other regular contributors.

Nearby

Air Quality

  Air Quality AQ Index Pollutant
Not available.

Snow Depth

Station Depth Elevation

Earthquake Activity

City Distance Mag. Time & Date
Minimum magnitude displayed is 2.5.

Coastal Water Temperatures

Place Temperature

Stations

Nearby Weather Stations

Station Location Temp. Windchill Dew Point Humidity Wind Precip. Elev Updated Type
                   

Watches & Warnings

There are currently no watches in effect.